Allred, Tennessee
Current Conditions -  °F | °C
As of 10:53 AM on Sunday 21 Dec 2014 (Local Time) from KCSV Reporting Station
Clear Clear  
Wind Chill:   Ceiling: Unl
Heat Index:   Visibility: 10mi
Dew Point: -2°   Wind: 5mph
Humidity: 51%   Direction: 130°SE
Pressure: 30.17"   Gusts: NA
Location:  36.33°N, 85.19°W
Report Text: KCSV 211653Z AUTO 13004KT 10SM CLR 08/M02 A3017 RMK AO2 SLP224 T00781017
Loading
Personal Weather Stations






























Interactive Weather Map New forecast layout! Learn more

10-Day Weather Forecast

Advertisements
Track Severe Weather on mobile